This is the latest recevied weather packets stored in our database for station/object HA8LNU. If no packets are shown the sender has not sent any weather packets the latest 10 day(s).
| Time | Temp. | Humidity | Pressure | Rain* | Wind** | Luminosity | Snow |
|---|---|---|---|---|---|---|---|
| 1777826444 | 18.89° C | 24% | 1019.8 hPa | 0 mm | - | - | - |
| 1777822270 | 21.11° C | 22% | 1019.9 hPa | 0 mm | - | - | - |
| 1777819861 | 22.78° C | 21% | 1020.5 hPa | 0 mm | - | - | - |
| 1777818055 | 23.89° C | 20% | 1020.8 hPa | 0 mm | - | - | - |
| 1777810227 | 23.33° C | 21% | 1022.3 hPa | 0 mm | - | - | - |
| 1777805470 | 21.67° C | 25% | 1023.1 hPa | 0 mm | - | - | - |
| 1777804869 | 21.11° C | 23% | 1023.3 hPa | 0 mm | - | - | - |
| 1777799449 | 20° C | 29% | 1024.2 hPa | 0 mm | - | - | - |
| 1777796439 | 18.89° C | 31% | 1024.3 hPa | 0 mm | - | - | - |
| 1777773017 | 5° C | 81% | 1022.4 hPa | 0 mm | - | - | - |
| 1777770668 | 4.44° C | 83% | 1022.1 hPa | 0 mm | - | - | - |
| 1777770086 | 3.89° C | 82% | 1021.9 hPa | 0 mm | - | - | - |
| 1777762841 | 5.56° C | 79% | 1021.8 hPa | 0 mm | - | - | - |
| 1777762239 | 5.56° C | 78% | 1021.7 hPa | 0 mm | - | - | - |
| 1777761657 | 5.56° C | 77% | 1021.7 hPa | 0 mm | - | - | - |
| 1777760433 | 6.11° C | 74% | 1021.7 hPa | 0 mm | - | - | - |
| 1777754472 | 8.89° C | 61% | 1021.5 hPa | 0 mm | - | - | - |
| 1777753267 | 8.33° C | 63% | 1021.5 hPa | 0 mm | - | - | - |
| 1777752063 | 8.33° C | 61% | 1021.5 hPa | 0 mm | - | - | - |
| 1777750879 | 8.89° C | 59% | 1021.5 hPa | 0 mm | - | - | - |
| 1777749655 | 9.44° C | 56% | 1021.6 hPa | 0 mm | - | - | - |
| 1777733458 | 22.22° C | 25% | 1021.6 hPa | 0 mm | - | - | - |
| 1777732876 | 22.22° C | 24% | 1021.5 hPa | 0 mm | - | - | - |
| 1777732254 | 22.78° C | 22% | 1021.7 hPa | 0 mm | - | - | - |
| 1777728039 | 23.89° C | 21% | 1022.1 hPa | 0 mm | - | - | - |
* Rain latest hour (hover to see other rain measurements)
** Current wind speed in m/s (hover to see current wind gust speed)